Details From MUHG - Frank Pais Intl
To MUVR - Juan Gualberto Gomez Intl
Flight Number -
Tags Decoded
Created
Modified
Stats Distance 316 nm / 586 km
Max Altitude 0 ft / 0 m
Waypoints 4
Social Downloads 1
Likes 0
Share VATSIM

Download

Looking for another format? Having issues loading an existing format? Contact us
Advertisement - Login to hide

Notes

Decoded

Route

MUHG UVT CLARA MUVR

ID Type Via Altitude Latitude Longitude Leg Dist Tot Dist Heading (true) Name
O MUHG APT - 0 ft / 0 m 20.77545˚ -76.32635˚ - 0 nm - -
UVT NDB - 0 ft / 0 m 20.98861˚ -76.93878˚ 36 nm 36 nm 291° / 290° TUNAS NDB
CLARA FIX - 0 ft / 0 m 22.48083˚ -79.99333˚ 192 nm 229 nm 298° / 297° -
O MUVR APT - 0 ft / 0 m 23.02551˚ -81.44937˚ 87 nm 316 nm 292° / 292° -

Altitude Profile

Advertisement - Login to hide

Weather


0- 5 10 15 20 25 30 35+ Temperature / ° C

Clouds and Precipitation
Forecast for 2017-12-18 00:00 UTC. Updated 5 minutes ago

Ground ~20,000 ft ~40,000 ft Winds

MUHG

Details ICAO MUHG (HOG)
Name FRANK PAIS INTL
Region Cuba
Timezone America/Havana (UTC-5.0)
Stats Elevation 361 ft / 110 m (AMSL)
Location 20.785554° -76.315108°
Runways 1
Magnetic Variation 8.246° W

METAR

MUHG 172250Z 08007KT 9000 FEW030 25/21 Q1019

Decode

TAF

Not found

Departure Runways

ID Width Length Bearing (true) Bearing (mag) Surface Threshold Offset Overrun Length
05 148 ft / 45 m 10,642 ft / 3,244 m 46.12° 54.37° Asphalt 328 ft / 100 m 290 ft / 88 m
23 148 ft / 45 m 10,642 ft / 3,244 m 226.12° 234.37° Asphalt 0 ft / 0 m 0 ft / 0 m

MUVR

Details ICAO MUVR (VRA)
Name JUAN GUALBERTO GOMEZ INTL
Region Cuba
Timezone America/Havana (UTC-5.0)
Stats Elevation 209 ft / 64 m (AMSL)
Location 23.034439° -81.435269°
Runways 1
Magnetic Variation 5.519° W

METAR

MUVR 172250Z 08007KT 9000 FEW025 BKN200 24/22 Q1020

Decode

TAF

Not found

Destination Runways

ID Width Length Bearing (true) Bearing (mag) Surface Threshold Offset Overrun Length
06 148 ft / 45 m 11,494 ft / 3,503 m 55.47° 60.99° Asphalt 0 ft / 0 m 197 ft / 60 m
24 148 ft / 45 m 11,494 ft / 3,503 m 235.48° 241.00° Asphalt 0 ft / 0 m 197 ft / 60 m

Approach Navaids

Runway Type Ident Frequency Range Bearing (true) Bearing (mag) Slope Elevation
06 Localiser IVR 111.30 MHz 18 nm / 33 km 55.49° 61.01° - 209 ft / 64 m (AMSL)
06 Glidescope IVR 111.30 MHz 10 nm / 19 km 55.47° 60.99° 3.00° 209 ft / 64 m (AMSL)

Popular Alternatives